< < Back
Terminal Aerodrome Forecast


Current Version              Previous Versions:   1  2  3  4  5  6  7  8  9  

Terminal Aerodrome Forecast

268
FTUS42 KMLB 270500
TAFDAB
TAF
KDAB 270520Z 2706/2806 28009KT P6SM SKC
     FM271600 28016G26KT P6SM SKC
     FM280200 31008KT P6SM SKC=

Latest METAR

633
SAUS80 KWBC 271200 RRA
MTRDAB
METAR KDAB 271153Z 27006KT 10SM FEW040 06/01 A3001 RMK AO2 SLP160
T00560011 10089 20044 51023


USA.gov is the U.S. government's official web portal to all federal, state and local government web resources and services.